Terminal Aerodrome Forecast
Issued by NWS

Home | Current Version | Previous Version | Text Only | Print | Product List | Glossary Off
Versions: 1 2 3 4 5 6 7 8 9 10 11 12 13 14 15 16 17 18

000
FTUS43 KMPX 181720
TAFRNH
TAF
KRNH 181720Z 1818/1918 11010G18KT P6SM SCT150
     FM190800 12014G22KT 6SM -RA OVC050
     FM191100 14014G20KT 4SM -RA BR OVC020=

USA.gov is the U.S. government's official web portal to all federal, state and local government web resources and services.